Time;durP1;ratioP1;P1;durP2;ratioP2;P2;SDS_P1;SDS_P2;PMS_P1;PMS_P2;Temp;Humidity;BMP_temperature;BMP_pressure;BME280_temperature;BME280_humidity;BME280_pressure;Samples;Min_cycle;Max_cycle;Signal;HPM_P1;HPM_P2
2021/12/28 00:02:13;;;;;;;49.17;31.83;;;13.10;99.90;;;;;;5034836;28;20216;-69
2021/12/28 00:05:19;;;;;;;49.13;31.92;;;13.00;99.90;;;;;;5034463;28;20044;-69
2021/12/28 00:08:23;;;;;;;47.85;32.30;;;13.00;99.90;;;;;;5034559;28;20567;-69
2021/12/28 00:11:27;;;;;;;46.80;30.63;;;13.00;99.90;;;;;;5034620;28;20053;-69
2021/12/28 00:14:36;;;;;;;50.03;30.38;;;13.00;99.90;;;;;;5033624;28;20056;-69
2021/12/28 00:21:23;;;;;;;41.58;29.83;;;12.90;99.90;;;;;;4992240;28;20146;-69
2021/12/28 00:24:27;;;;;;;45.67;30.55;;;12.90;99.90;;;;;;4992467;28;20044;-69
2021/12/28 00:27:31;;;;;;;50.55;33.30;;;13.00;99.90;;;;;;5034138;28;20095;-69
2021/12/28 00:30:35;;;;;;;48.70;31.48;;;12.90;99.90;;;;;;5034266;28;20331;-69
2021/12/28 00:33:39;;;;;;;42.42;28.77;;;13.00;99.90;;;;;;5034007;28;20056;-69
2021/12/28 00:36:43;;;;;;;41.15;28.95;;;13.00;99.90;;;;;;5033923;28;20039;-69
2021/12/28 00:39:47;;;;;;;49.47;31.20;;;13.00;99.90;;;;;;5034228;28;20408;-69
2021/12/28 00:42:55;;;;;;;46.35;32.60;;;12.90;99.90;;;;;;5034591;28;20060;-69
2021/12/28 00:45:59;;;;;;;40.55;28.92;;;12.80;99.90;;;;;;5033762;28;20040;-68
2021/12/28 00:49:03;;;;;;;48.08;29.85;;;12.70;99.90;;;;;;5033710;28;20052;-69
2021/12/28 00:52:08;;;;;;;45.13;29.92;;;12.80;99.90;;;;;;5033700;28;20036;-69
2021/12/28 00:55:14;;;;;;;54.28;29.60;;;12.90;99.90;;;;;;5033552;28;20064;-69
2021/12/28 00:58:21;;;;;;;38.40;24.58;;;12.90;99.90;;;;;;5033338;28;20524;-69
2021/12/28 01:01:25;;;;;;;38.28;24.55;;;12.90;99.90;;;;;;5033533;28;20060;-69
2021/12/28 01:04:29;;;;;;;38.10;23.38;;;13.00;99.90;;;;;;5033413;28;20048;-69
2021/12/28 01:07:33;;;;;;;33.90;23.15;;;12.90;99.90;;;;;;5033208;28;20080;-69
2021/12/28 01:10:50;;;;;;;38.55;24.40;;;12.90;99.90;;;;;;5033594;28;20495;-69
2021/12/28 01:13:53;;;;;;;37.67;26.90;;;12.80;99.90;;;;;;5033241;28;20064;-69
2021/12/28 01:16:59;;;;;;;38.97;25.20;;;12.60;99.90;;;;;;5033462;28;20405;-69
2021/12/28 01:20:05;;;;;;;36.60;24.00;;;12.50;99.90;;;;;;5033076;28;20040;-69
2021/12/28 01:23:10;;;;;;;32.63;21.50;;;12.50;99.90;;;;;;5033027;28;20405;-69
2021/12/28 01:26:14;;;;;;;24.85;16.70;;;12.40;99.90;;;;;;5009922;28;20045;-69
2021/12/28 01:29:21;;;;;;;26.52;15.10;;;12.40;99.90;;;;;;5032967;28;20044;-69
2021/12/28 01:32:25;;;;;;;20.58;13.32;;;12.50;99.90;;;;;;5033195;28;20053;-69
2021/12/28 01:35:31;;;;;;;20.63;12.20;;;12.60;99.90;;;;;;5033048;28;20057;-69
2021/12/28 01:38:35;;;;;;;22.02;10.80;;;12.60;99.90;;;;;;5020656;28;20413;-69
2021/12/28 01:41:39;;;;;;;16.23;9.73;;;12.60;99.90;;;;;;5020362;28;20064;-69
2021/12/28 01:44:43;;;;;;;15.30;7.60;;;12.60;99.90;;;;;;5032743;28;20484;-69
2021/12/28 01:47:47;;;;;;;9.90;6.25;;;12.60;99.90;;;;;;5020479;28;20044;-69
2021/12/28 01:50:54;;;;;;;12.38;6.28;;;12.50;99.90;;;;;;5032533;28;20044;-69
2021/12/28 01:53:59;;;;;;;12.65;6.65;;;12.50;99.90;;;;;;5032391;28;20044;-69
2021/12/28 01:57:03;;;;;;;13.20;6.90;;;12.50;99.90;;;;;;5020324;28;20044;-69
2021/12/28 02:00:11;;;;;;;13.63;8.45;;;12.40;99.90;;;;;;5032070;28;20044;-69
2021/12/28 02:03:19;;;;;;;14.27;8.93;;;12.40;99.90;;;;;;5032822;28;20052;-69
2021/12/28 02:06:25;;;;;;;13.85;9.20;;;12.40;99.90;;;;;;5029085;28;20515;-68
2021/12/28 02:09:29;;;;;;;14.43;8.98;;;12.40;99.90;;;;;;5052106;28;20044;-69
2021/12/28 02:12:33;;;;;;;15.13;9.52;;;12.30;99.90;;;;;;5052654;28;20491;-69
2021/12/28 02:15:38;;;;;;;18.58;10.65;;;12.30;99.90;;;;;;5052191;28;20064;-69
2021/12/28 02:18:43;;;;;;;17.90;10.25;;;12.40;99.90;;;;;;5051952;28;20044;-69
2021/12/28 02:21:47;;;;;;;15.73;9.57;;;12.50;99.90;;;;;;5051935;28;20072;-69
2021/12/28 02:24:50;;;;;;;15.35;9.52;;;12.60;99.90;;;;;;5052431;28;20495;-69
2021/12/28 02:27:54;;;;;;;13.20;8.35;;;12.60;99.90;;;;;;5051770;28;20130;-68
2021/12/28 02:30:59;;;;;;;17.65;10.15;;;12.60;99.90;;;;;;5051971;28;20052;-69
2021/12/28 02:34:03;;;;;;;13.50;9.30;;;12.70;99.90;;;;;;5051552;28;20048;-69
2021/12/28 02:37:07;;;;;;;15.10;8.77;;;12.70;99.90;;;;;;5051964;28;20043;-69
2021/12/28 02:40:18;;;;;;;14.68;9.10;;;12.70;99.90;;;;;;5051408;28;20036;-69
2021/12/28 02:43:22;;;;;;;14.00;8.88;;;12.60;99.90;;;;;;5051607;28;20503;-69
2021/12/28 02:46:26;;;;;;;15.90;8.90;;;12.50;99.90;;;;;;5051725;28;20044;-69
2021/12/28 02:49:30;;;;;;;13.95;8.82;;;12.50;99.90;;;;;;5051311;28;20044;-69
2021/12/28 02:52:36;;;;;;;18.65;8.35;;;12.50;99.90;;;;;;5051251;28;20048;-69
2021/12/28 02:55:41;;;;;;;12.57;7.93;;;12.50;99.90;;;;;;5051169;28;20048;-68
2021/12/28 02:58:48;;;;;;;15.63;8.40;;;12.60;99.90;;;;;;5051504;28;20400;-69
2021/12/28 03:01:53;;;;;;;10.05;7.15;;;12.70;99.90;;;;;;5051192;28;20056;-69
2021/12/28 03:04:56;;;;;;;9.18;6.20;;;12.70;99.90;;;;;;5051103;28;20048;-68
2021/12/28 03:08:00;;;;;;;10.73;5.47;;;12.80;99.90;;;;;;5051375;28;20236;-69
2021/12/28 03:11:05;;;;;;;9.93;4.78;;;12.80;99.90;;;;;;5051101;28;20070;-69
2021/12/28 03:14:10;;;;;;;7.82;5.15;;;12.80;99.90;;;;;;5051207;28;20044;-69
2021/12/28 03:17:14;;;;;;;8.93;4.55;;;12.90;99.90;;;;;;5051288;28;20615;-69
2021/12/28 03:20:19;;;;;;;7.15;4.32;;;12.90;99.90;;;;;;5051108;28;20051;-67
2021/12/28 03:23:24;;;;;;;9.43;4.25;;;12.90;99.90;;;;;;5050963;28;20424;-69
2021/12/28 03:26:28;;;;;;;7.95;4.25;;;13.00;99.90;;;;;;5051157;28;20499;-69
2021/12/28 03:29:32;;;;;;;9.75;4.30;;;13.00;99.90;;;;;;5051074;28;20048;-69
2021/12/28 03:32:36;;;;;;;7.47;3.92;;;13.00;99.90;;;;;;5051144;28;20048;-69
2021/12/28 03:35:41;;;;;;;7.95;4.55;;;13.00;99.90;;;;;;5050186;28;20052;-69
2021/12/28 03:38:46;;;;;;;8.48;4.43;;;13.00;99.90;;;;;;5051072;28;20040;-69
2021/12/28 03:41:49;;;;;;;6.35;4.18;;;13.00;99.90;;;;;;5050629;28;20071;-69
2021/12/28 03:44:54;;;;;;;6.55;4.00;;;13.00;99.90;;;;;;5050668;28;20044;-69
2021/12/28 03:47:58;;;;;;;7.10;3.40;;;12.90;99.90;;;;;;5050740;28;20036;-69
2021/12/28 03:51:02;;;;;;;8.32;3.80;;;12.80;99.90;;;;;;5050670;28;20040;-69
2021/12/28 03:54:09;;;;;;;8.77;3.80;;;12.80;99.90;;;;;;5050826;28;20400;-69
2021/12/28 03:57:13;;;;;;;5.78;3.70;;;12.70;99.90;;;;;;5050571;28;20032;-68
2021/12/28 04:00:20;;;;;;;5.65;4.18;;;12.60;99.90;;;;;;5050810;28;20537;-69
2021/12/28 04:03:24;;;;;;;7.10;4.70;;;12.60;99.90;;;;;;5050668;28;20067;-69
2021/12/28 04:06:30;;;;;;;12.50;5.20;;;12.50;99.90;;;;;;5041899;28;20045;-69
2021/12/28 04:12:53;;;;;;;12.05;5.68;;;12.50;99.90;;;;;;5030937;28;20044;-69
2021/12/28 04:15:57;;;;;;;6.50;4.75;;;12.50;99.90;;;;;;5031002;28;20492;-69
2021/12/28 04:19:04;;;;;;;9.20;5.78;;;12.50;99.90;;;;;;5030778;28;20424;-69
2021/12/28 04:22:08;;;;;;;10.70;5.35;;;12.40;99.90;;;;;;5030529;28;20432;-69
2021/12/28 04:25:15;;;;;;;10.02;5.25;;;12.40;99.90;;;;;;5030640;28;20424;-69
2021/12/28 04:28:19;;;;;;;11.10;6.15;;;12.50;99.90;;;;;;5030667;28;20044;-69
2021/12/28 04:31:23;;;;;;;10.65;5.35;;;12.40;99.90;;;;;;5030705;28;20044;-69
2021/12/28 04:34:27;;;;;;;8.05;5.85;;;12.40;99.90;;;;;;5032322;28;20495;-69
2021/12/28 04:37:31;;;;;;;12.23;6.55;;;12.40;99.90;;;;;;5034328;28;20041;-69
2021/12/28 04:40:35;;;;;;;13.48;6.60;;;12.40;99.90;;;;;;5034135;28;20048;-69
2021/12/28 04:43:39;;;;;;;14.25;7.18;;;12.40;99.90;;;;;;5033739;28;20052;-69
2021/12/28 04:46:43;;;;;;;12.55;6.85;;;12.40;99.90;;;;;;5033845;28;20392;-69
2021/12/28 04:49:47;;;;;;;10.50;6.45;;;12.30;99.90;;;;;;5034075;28;20369;-69
2021/12/28 04:52:52;;;;;;;12.90;7.25;;;12.40;99.90;;;;;;5033869;28;20044;-69
2021/12/28 04:55:57;;;;;;;15.65;7.80;;;12.30;99.90;;;;;;5033582;28;20052;-69
2021/12/28 04:59:00;;;;;;;12.55;8.05;;;12.30;99.90;;;;;;5033792;28;20495;-69
2021/12/28 05:02:04;;;;;;;13.88;8.05;;;12.20;99.90;;;;;;5033441;28;20072;-69
2021/12/28 05:05:09;;;;;;;13.98;7.93;;;12.10;99.90;;;;;;5033745;28;20417;-69
2021/12/28 05:08:14;;;;;;;12.40;7.22;;;12.20;99.90;;;;;;5033709;28;20056;-67
2021/12/28 05:11:18;;;;;;;9.98;7.35;;;12.20;99.90;;;;;;5033651;28;20056;-69
2021/12/28 05:14:22;;;;;;;15.93;8.50;;;12.30;99.90;;;;;;5033423;28;20052;-68
2021/12/28 05:17:29;;;;;;;12.20;6.95;;;12.30;99.90;;;;;;5033447;28;20049;-69
2021/12/28 05:20:33;;;;;;;12.65;7.10;;;12.30;99.90;;;;;;5033266;28;20048;-69
2021/12/28 05:23:38;;;;;;;14.68;7.80;;;12.20;99.90;;;;;;5033068;28;20052;-69
2021/12/28 05:26:42;;;;;;;11.65;8.07;;;12.30;99.90;;;;;;5033240;28;20393;-69
2021/12/28 05:29:45;;;;;;;13.25;7.88;;;12.20;99.90;;;;;;5032994;28;20200;-69
2021/12/28 05:32:49;;;;;;;10.20;8.38;;;12.20;99.90;;;;;;5033217;28;20049;-69
2021/12/28 05:35:53;;;;;;;9.20;6.80;;;12.20;99.90;;;;;;5032759;28;20044;-69
2021/12/28 05:38:57;;;;;;;14.63;7.30;;;12.10;99.90;;;;;;5032938;28;20539;-69
2021/12/28 05:42:02;;;;;;;9.98;7.18;;;12.10;99.90;;;;;;5032709;28;20124;-69
2021/12/28 05:45:07;;;;;;;13.57;8.02;;;12.10;99.90;;;;;;5032652;28;20040;-69
2021/12/28 05:48:11;;;;;;;17.73;9.88;;;12.10;99.90;;;;;;5032574;28;20048;-69
2021/12/28 05:51:18;;;;;;;14.52;10.93;;;12.10;99.90;;;;;;5032805;28;20048;-69
2021/12/28 05:54:23;;;;;;;14.50;8.35;;;12.10;99.90;;;;;;5032733;28;20056;-69
2021/12/28 05:57:27;;;;;;;11.38;7.40;;;12.10;99.90;;;;;;5032784;28;20044;-68
2021/12/28 06:00:31;;;;;;;12.18;7.32;;;12.10;99.90;;;;;;5020488;28;20045;-69
2021/12/28 06:03:35;;;;;;;10.52;7.15;;;12.00;99.90;;;;;;5032491;28;20060;-69
2021/12/28 06:06:39;;;;;;;12.95;6.70;;;11.90;99.90;;;;;;5032233;28;20052;-68
2021/12/28 06:09:43;;;;;;;11.32;6.30;;;11.90;99.90;;;;;;5032163;28;20045;-68
2021/12/28 06:12:48;;;;;;;7.20;5.25;;;11.80;99.90;;;;;;5032223;28;20036;-68
2021/12/28 06:15:52;;;;;;;19.10;7.35;;;11.70;99.90;;;;;;5031941;28;20044;-68
2021/12/28 06:18:55;;;;;;;13.55;7.80;;;11.70;99.90;;;;;;5019947;28;20408;-69
2021/12/28 06:21:59;;;;;;;15.45;7.53;;;11.70;99.90;;;;;;5032095;28;20061;-68
2021/12/28 06:25:06;;;;;;;11.30;6.43;;;11.80;99.90;;;;;;5032159;28;20095;-69
2021/12/28 06:28:10;;;;;;;10.35;5.90;;;11.80;99.90;;;;;;5031761;28;20456;-68
2021/12/28 06:31:14;;;;;;;12.02;6.60;;;11.80;99.90;;;;;;5032040;28;20048;-69
2021/12/28 06:34:18;;;;;;;13.75;6.65;;;11.90;99.90;;;;;;5019376;28;20057;-68
2021/12/28 06:37:22;;;;;;;9.30;6.72;;;11.80;99.90;;;;;;5031625;28;20048;-68
2021/12/28 06:40:26;;;;;;;15.35;6.53;;;11.80;99.90;;;;;;5019522;28;20401;-68
2021/12/28 06:43:30;;;;;;;13.25;7.65;;;11.80;99.90;;;;;;5031764;28;20052;-63
2021/12/28 06:46:33;;;;;;;12.75;6.07;;;11.90;99.90;;;;;;5031658;28;20048;-61
2021/12/28 06:49:37;;;;;;;15.63;8.38;;;11.90;99.90;;;;;;5031423;28;20049;-61
2021/12/28 06:52:41;;;;;;;15.52;8.75;;;11.90;99.90;;;;;;5031512;28;20056;-60
2021/12/28 06:55:45;;;;;;;15.77;8.57;;;11.90;99.90;;;;;;5031227;28;20052;-63
2021/12/28 06:58:50;;;;;;;12.80;7.53;;;11.80;99.90;;;;;;5031427;28;20081;-62
2021/12/28 07:01:54;;;;;;;13.60;8.25;;;11.80;99.90;;;;;;5031009;28;20056;-60
2021/12/28 07:04:58;;;;;;;13.70;7.35;;;11.80;99.90;;;;;;5031042;28;20040;-60
2021/12/28 07:08:02;;;;;;;25.38;11.05;;;11.70;99.90;;;;;;5031070;28;20404;-62
2021/12/28 07:11:07;;;;;;;14.90;7.85;;;11.70;99.90;;;;;;5031123;28;20044;-61
2021/12/28 07:14:13;;;;;;;15.65;8.30;;;11.70;99.90;;;;;;5031039;28;20072;-60
2021/12/28 07:17:17;;;;;;;14.75;8.85;;;11.80;99.90;;;;;;5031243;28;20397;-63
2021/12/28 07:20:21;;;;;;;14.43;8.23;;;11.90;99.90;;;;;;5031177;28;20413;-60
2021/12/28 07:23:25;;;;;;;17.58;10.15;;;11.80;99.90;;;;;;5030757;28;20515;-60
2021/12/28 07:26:29;;;;;;;16.42;8.98;;;11.80;99.90;;;;;;5030819;28;20040;-63
2021/12/28 07:29:33;;;;;;;17.35;8.90;;;11.80;99.90;;;;;;5030568;28;20052;-63
2021/12/28 07:32:38;;;;;;;15.75;10.35;;;11.90;99.90;;;;;;5030738;28;20044;-62
2021/12/28 07:35:42;;;;;;;18.35;10.30;;;11.90;99.90;;;;;;5030681;28;20116;-62
2021/12/28 07:38:46;;;;;;;18.05;10.57;;;11.90;99.90;;;;;;5031086;28;20495;-64
2021/12/28 07:41:51;;;;;;;16.35;10.48;;;12.00;99.90;;;;;;5030727;28;20041;-63
2021/12/28 07:44:55;;;;;;;17.73;10.65;;;12.10;99.90;;;;;;5030680;28;20049;-64
2021/12/28 07:47:59;;;;;;;15.15;10.73;;;12.20;99.90;;;;;;5030739;28;20037;-64
2021/12/28 07:51:03;;;;;;;16.77;10.35;;;12.30;99.90;;;;;;5030495;28;20507;-64
2021/12/28 07:54:07;;;;;;;15.50;9.38;;;12.40;99.90;;;;;;5030215;28;20044;-64
2021/12/28 07:57:11;;;;;;;16.60;9.65;;;12.50;99.90;;;;;;5030765;28;20040;-62
2021/12/28 08:00:19;;;;;;;16.17;10.52;;;12.70;99.90;;;;;;5030628;28;20508;-62
2021/12/28 08:03:24;;;;;;;18.88;11.32;;;12.80;99.90;;;;;;5030387;28;20048;-64
2021/12/28 08:06:31;;;;;;;16.02;10.13;;;13.00;99.90;;;;;;5030230;28;20069;-64
2021/12/28 08:09:34;;;;;;;21.13;11.90;;;13.00;99.90;;;;;;5032661;28;20052;-64
2021/12/28 08:12:39;;;;;;;13.35;9.32;;;13.10;99.90;;;;;;5034234;28;20538;-64
2021/12/28 08:15:44;;;;;;;14.93;9.32;;;13.10;99.90;;;;;;5034605;28;20421;-68
2021/12/28 08:18:48;;;;;;;14.00;8.93;;;13.20;99.90;;;;;;5034405;28;20041;-64
2021/12/28 08:21:52;;;;;;;17.17;10.98;;;13.10;99.90;;;;;;5034208;28;20057;-64
2021/12/28 08:24:56;;;;;;;16.75;9.85;;;13.00;99.90;;;;;;5033901;28;20052;-64
2021/12/28 08:28:04;;;;;;;16.65;9.40;;;13.00;99.90;;;;;;5034072;28;20048;-62
2021/12/28 08:31:09;;;;;;;14.98;8.70;;;13.10;99.90;;;;;;5033919;28;20092;-65
2021/12/28 08:34:13;;;;;;;14.13;9.73;;;13.10;99.90;;;;;;5033790;28;20049;-64
2021/12/28 08:37:17;;;;;;;15.75;8.52;;;13.20;99.90;;;;;;5034127;28;20048;-64
2021/12/28 08:40:21;;;;;;;16.20;9.70;;;13.30;99.90;;;;;;5033727;28;20284;-66
2021/12/28 08:43:25;;;;;;;12.85;8.50;;;13.50;99.90;;;;;;5033426;28;20484;-62
2021/12/28 08:46:29;;;;;;;15.15;9.48;;;13.70;99.90;;;;;;5033996;28;20056;-61
2021/12/28 08:49:33;;;;;;;15.32;9.48;;;13.90;99.90;;;;;;5034319;28;20052;-62
2021/12/28 08:52:37;;;;;;;15.65;10.98;;;14.10;99.90;;;;;;5033760;28;20508;-61
2021/12/28 08:55:41;;;;;;;17.20;9.75;;;14.30;99.90;;;;;;5033468;28;20511;-61
2021/12/28 08:58:45;;;;;;;16.38;9.40;;;14.40;99.90;;;;;;5033235;28;20049;-62
2021/12/28 09:01:49;;;;;;;15.82;9.48;;;14.60;99.90;;;;;;5033173;28;20049;-64
2021/12/28 09:04:54;;;;;;;12.80;8.93;;;14.70;99.90;;;;;;5033217;28;20397;-62
2021/12/28 09:08:01;;;;;;;17.85;11.05;;;14.80;99.90;;;;;;5033194;28;20493;-62
2021/12/28 09:11:05;;;;;;;14.48;10.13;;;15.00;99.90;;;;;;5033366;28;20056;-63
2021/12/28 09:14:10;;;;;;;15.27;9.77;;;15.20;99.90;;;;;;5033047;28;20044;-63
2021/12/28 09:17:15;;;;;;;16.55;9.95;;;15.40;99.90;;;;;;5033236;28;20052;-63
2021/12/28 09:20:22;;;;;;;15.70;9.02;;;15.60;99.90;;;;;;5032866;28;20310;-62
2021/12/28 09:23:28;;;;;;;11.10;8.80;;;15.70;99.90;;;;;;5032497;28;20067;-64
2021/12/28 09:26:36;;;;;;;16.48;11.30;;;15.80;99.90;;;;;;5032947;28;20044;-62
2021/12/28 09:29:43;;;;;;;16.40;10.43;;;15.90;99.90;;;;;;5032485;28;20072;-62
2021/12/28 09:32:51;;;;;;;14.35;8.13;;;16.00;99.90;;;;;;5032776;28;20040;-64
2021/12/28 09:35:55;;;;;;;16.42;9.50;;;16.10;99.90;;;;;;5032361;28;20041;-64
2021/12/28 09:38:59;;;;;;;11.35;8.18;;;16.30;99.90;;;;;;5032338;28;20044;-61
2021/12/28 09:42:04;;;;;;;16.00;8.55;;;16.40;99.60;;;;;;5032317;28;20061;-61
2021/12/28 09:45:09;;;;;;;15.05;9.30;;;16.50;99.00;;;;;;5032551;28;20496;-64
2021/12/28 09:48:14;;;;;;;13.73;8.60;;;16.60;99.00;;;;;;5032294;28;20061;-62
2021/12/28 09:51:18;;;;;;;12.77;8.40;;;16.70;98.80;;;;;;5032562;28;20057;-63
2021/12/28 09:54:24;;;;;;;15.48;8.20;;;16.80;98.60;;;;;;5032809;28;20353;-62
2021/12/28 09:57:28;;;;;;;12.50;8.68;;;16.90;98.50;;;;;;5032421;28;20052;-62
2021/12/28 10:00:32;;;;;;;13.07;7.47;;;17.00;98.50;;;;;;5032181;28;20056;-64
2021/12/28 10:03:37;;;;;;;18.63;8.15;;;17.10;98.00;;;;;;5031996;28;20057;-64
2021/12/28 10:06:43;;;;;;;9.27;6.13;;;17.20;97.60;;;;;;5031729;28;20413;-63
2021/12/28 10:09:48;;;;;;;9.75;5.50;;;17.30;96.80;;;;;;5031823;28;20044;-63
2021/12/28 10:13:00;;;;;;;10.25;6.15;;;17.40;96.30;;;;;;5031700;28;20068;-62
2021/12/28 10:16:04;;;;;;;14.15;6.35;;;17.50;96.10;;;;;;5031959;28;20045;-64
2021/12/28 10:19:30;;;;;;;11.05;6.50;;;17.60;96.30;;;;;;5031660;28;20044;-62
2021/12/28 10:22:39;;;;;;;11.48;6.22;;;17.70;96.10;;;;;;5031838;28;20064;-62
2021/12/28 10:26:06;;;;;;;9.77;6.07;;;17.80;95.90;;;;;;5031570;28;20052;-64
2021/12/28 10:29:29;;;;;;;10.52;5.20;;;17.90;95.20;;;;;;5031967;28;20528;-62
2021/12/28 10:32:33;;;;;;;6.53;4.47;;;18.00;94.80;;;;;;5018764;28;20064;-62
2021/12/28 10:35:44;;;;;;;8.25;4.40;;;18.00;95.40;;;;;;5031177;28;20048;-66
2021/12/28 10:38:51;;;;;;;11.70;4.77;;;18.20;95.50;;;;;;5031513;28;20398;-62
2021/12/28 10:41:54;;;;;;;6.32;4.40;;;18.20;95.10;;;;;;5031452;28;20515;-63
2021/12/28 10:44:59;;;;;;;8.68;4.10;;;18.20;94.60;;;;;;5031340;28;20041;-63
2021/12/28 10:48:26;;;;;;;12.45;4.85;;;18.30;94.60;;;;;;5031465;28;20044;-63
2021/12/28 10:51:39;;;;;;;5.07;3.28;;;18.30;94.10;;;;;;5030934;28;20076;-63
2021/12/28 10:54:42;;;;;;;8.02;3.00;;;18.40;93.50;;;;;;5031085;28;20492;-63
2021/12/28 10:57:46;;;;;;;5.53;2.88;;;18.40;93.30;;;;;;5030981;28;20048;-63
2021/12/28 11:00:51;;;;;;;6.57;3.10;;;18.50;92.80;;;;;;5030810;28;20040;-63
2021/12/28 11:04:04;;;;;;;6.18;3.42;;;18.50;93.20;;;;;;5030442;28;20049;-63
2021/12/28 11:07:08;;;;;;;7.05;3.53;;;18.60;93.50;;;;;;5030286;28;20397;-63
2021/12/28 11:10:13;;;;;;;5.72;2.80;;;18.60;92.70;;;;;;5030886;28;20040;-63
2021/12/28 11:13:24;;;;;;;5.75;2.90;;;18.60;91.90;;;;;;5030780;28;20067;-63
2021/12/28 11:16:30;;;;;;;13.27;4.38;;;18.60;92.30;;;;;;5030794;28;20044;-63
2021/12/28 11:19:37;;;;;;;8.00;3.88;;;18.60;92.40;;;;;;5030741;28;20045;-63
2021/12/28 11:23:06;;;;;;;9.07;3.97;;;18.60;92.70;;;;;;5030404;28;20056;-63
2021/12/28 11:26:16;;;;;;;8.43;4.88;;;18.60;92.40;;;;;;5030873;28;20044;-63
2021/12/28 11:29:22;;;;;;;10.23;5.22;;;18.50;92.40;;;;;;5030593;28;20048;-63
2021/12/28 11:32:26;;;;;;;12.38;6.80;;;18.50;93.00;;;;;;5030623;28;20515;-63
2021/12/28 11:35:30;;;;;;;13.82;6.38;;;18.40;92.90;;;;;;5030365;28;20499;-63
2021/12/28 11:38:35;;;;;;;12.05;6.20;;;18.40;92.90;;;;;;5030641;28;20388;-63
2021/12/28 11:41:40;;;;;;;9.30;4.95;;;18.30;93.20;;;;;;5030443;28;20500;-63
2021/12/28 11:44:44;;;;;;;10.15;4.03;;;18.30;93.20;;;;;;5034617;28;20072;-63
2021/12/28 11:47:48;;;;;;;6.70;3.95;;;18.20;93.10;;;;;;5034566;28;20048;-63
2021/12/28 11:50:53;;;;;;;11.52;5.88;;;18.10;93.10;;;;;;5034353;28;20045;-63
2021/12/28 11:54:04;;;;;;;9.77;4.43;;;18.10;92.80;;;;;;5034377;28;20393;-63
2021/12/28 11:57:14;;;;;;;8.82;4.43;;;18.00;92.80;;;;;;5034518;28;20049;-65
2021/12/28 12:00:22;;;;;;;8.20;3.45;;;18.00;93.70;;;;;;5034096;28;20316;-63
2021/12/28 12:03:39;;;;;;;6.82;2.50;;;18.00;95.40;;;;;;5033198;28;20075;-63
2021/12/28 12:07:18;;;;;;;5.65;2.20;;;17.90;94.40;;;;;;5031969;28;20060;-63
2021/12/28 12:10:27;;;;;;;5.40;2.50;;;17.90;93.10;;;;;;5031991;28;20052;-63
2021/12/28 12:13:31;;;;;;;8.88;3.65;;;17.80;92.80;;;;;;5032342;28;20500;-63
2021/12/28 12:16:35;;;;;;;6.82;3.90;;;17.80;92.80;;;;;;5033272;28;20060;-64
2021/12/28 12:19:49;;;;;;;6.15;3.83;;;17.80;93.10;;;;;;5034053;28;20041;-64
2021/12/28 12:22:56;;;;;;;5.15;3.40;;;17.90;93.40;;;;;;5031925;28;20056;-64
2021/12/28 12:26:04;;;;;;;7.10;3.45;;;17.80;93.40;;;;;;5033913;28;20060;-64
2021/12/28 12:29:21;;;;;;;4.80;2.72;;;17.80;92.60;;;;;;5034133;28;20048;-64
2021/12/28 12:33:05;;;;;;;5.50;3.22;;;17.80;92.60;;;;;;5033881;28;20500;-64
2021/12/28 12:36:20;;;;;;;9.43;3.25;;;17.70;92.40;;;;;;5033719;28;20045;-64
2021/12/28 12:39:24;;;;;;;4.20;2.80;;;17.70;92.40;;;;;;5034123;28;20048;-64
2021/12/28 12:42:28;;;;;;;9.10;3.63;;;17.70;92.70;;;;;;5033858;28;20040;-64
2021/12/28 12:46:10;;;;;;;8.25;4.25;;;17.70;92.90;;;;;;5033816;28;20048;-63
2021/12/28 12:49:31;;;;;;;7.93;3.72;;;17.70;93.10;;;;;;5013409;28;20048;-63
2021/12/28 12:52:35;;;;;;;4.70;3.20;;;17.60;93.00;;;;;;5033377;28;20044;-63
2021/12/28 12:55:40;;;;;;;5.97;2.83;;;17.70;92.90;;;;;;5030861;28;20041;-63
2021/12/28 12:58:46;;;;;;;8.77;2.90;;;17.60;92.90;;;;;;5033458;28;20036;-64
2021/12/28 13:01:55;;;;;;;5.88;2.45;;;17.60;92.80;;;;;;5020825;28;20078;-64
2021/12/28 13:05:09;;;;;;;5.63;2.85;;;17.60;92.60;;;;;;5033506;28;20044;-64
2021/12/28 13:08:14;;;;;;;4.80;2.78;;;17.50;92.00;;;;;;5033234;28;20060;-64
2021/12/28 13:11:32;;;;;;;5.22;3.10;;;17.50;91.80;;;;;;5033606;28;20048;-64
2021/12/28 13:14:37;;;;;;;4.57;2.35;;;17.50;92.20;;;;;;5033263;28;20052;-64
2021/12/28 13:17:43;;;;;;;5.88;2.60;;;17.40;92.80;;;;;;5032939;28;20052;-64
2021/12/28 13:20:49;;;;;;;6.70;2.65;;;17.40;92.90;;;;;;5033341;28;20048;-64
2021/12/28 13:24:10;;;;;;;8.35;3.08;;;17.30;93.30;;;;;;5031978;28;20381;-64
2021/12/28 13:27:17;;;;;;;6.90;3.20;;;17.20;94.00;;;;;;5033282;28;20515;-62
2021/12/28 13:30:25;;;;;;;7.47;2.70;;;17.20;94.50;;;;;;5032671;28;20619;-64
2021/12/28 13:33:32;;;;;;;9.55;2.50;;;17.10;94.70;;;;;;5019942;28;20068;-65
2021/12/28 13:36:50;;;;;;;7.38;2.50;;;17.10;94.90;;;;;;5032683;28;20068;-61
2021/12/28 13:39:59;;;;;;;7.90;2.90;;;17.10;95.00;;;;;;5032911;28;20052;-62
2021/12/28 13:43:19;;;;;;;9.20;3.40;;;17.00;95.30;;;;;;5032394;28;20068;-63
2021/12/28 13:46:23;;;;;;;14.23;4.53;;;17.00;95.20;;;;;;5033128;28;20040;-63
2021/12/28 13:49:27;;;;;;;7.28;3.28;;;17.00;95.20;;;;;;5031066;28;20068;-62
2021/12/28 13:52:47;;;;;;;7.65;3.70;;;17.00;95.40;;;;;;5031999;28;20040;-62
2021/12/28 13:55:58;;;;;;;9.20;3.72;;;16.90;95.40;;;;;;5032836;28;20048;-62
2021/12/28 13:59:14;;;;;;;9.27;4.43;;;16.90;95.60;;;;;;5032524;28;20413;-62
2021/12/28 14:02:19;;;;;;;6.55;4.15;;;16.90;95.40;;;;;;5032234;28;20044;-63
2021/12/28 14:05:24;;;;;;;10.20;4.43;;;16.80;95.60;;;;;;5032162;28;20044;-63
2021/12/28 14:08:30;;;;;;;13.40;5.80;;;16.80;95.60;;;;;;5032482;28;20068;-63
2021/12/28 14:11:54;;;;;;;12.77;4.45;;;16.80;95.50;;;;;;5032334;28;20048;-63
2021/12/28 14:14:58;;;;;;;9.48;4.47;;;16.80;96.00;;;;;;5032274;28;20045;-63
2021/12/28 14:18:21;;;;;;;9.25;4.90;;;16.70;96.10;;;;;;5031992;28;20052;-63
2021/12/28 14:21:27;;;;;;;11.32;4.13;;;16.70;96.30;;;;;;5032035;28;20044;-63
2021/12/28 14:24:32;;;;;;;12.10;3.85;;;16.70;96.30;;;;;;5031651;28;20060;-63
2021/12/28 14:27:36;;;;;;;8.90;3.80;;;16.60;96.40;;;;;;5031694;28;20120;-63
2021/12/28 14:30:40;;;;;;;12.18;5.25;;;16.60;96.40;;;;;;5031841;28;20492;-63
2021/12/28 14:33:52;;;;;;;13.48;5.00;;;16.60;96.40;;;;;;5032104;28;20048;-63
2021/12/28 14:37:21;;;;;;;14.10;7.25;;;16.60;96.70;;;;;;5031877;28;20049;-63
2021/12/28 14:40:31;;;;;;;20.15;9.35;;;16.50;96.80;;;;;;5031652;28;20126;-63
2021/12/28 14:43:35;;;;;;;21.13;8.35;;;16.50;97.00;;;;;;5031461;28;20045;-63
2021/12/28 14:46:41;;;;;;;22.40;8.07;;;16.40;97.20;;;;;;5031248;28;20044;-63
2021/12/28 14:49:46;;;;;;;14.70;5.97;;;16.40;97.30;;;;;;5031280;28;20056;-63
2021/12/28 14:52:53;;;;;;;9.27;4.60;;;16.40;97.70;;;;;;5031529;28;20048;-63
2021/12/28 14:56:10;;;;;;;12.35;4.78;;;16.30;97.70;;;;;;5031069;28;20056;-63
2021/12/28 14:59:24;;;;;;;13.15;5.00;;;16.30;97.90;;;;;;5030828;28;20044;-63
2021/12/28 15:02:28;;;;;;;21.70;5.50;;;16.30;98.00;;;;;;5030710;28;20056;-63
2021/12/28 15:05:39;;;;;;;12.38;4.00;;;16.30;98.00;;;;;;5030299;28;20045;-63
2021/12/28 15:08:42;;;;;;;11.55;5.25;;;16.30;98.00;;;;;;5031016;28;20488;-63
2021/12/28 15:11:47;;;;;;;17.05;6.57;;;16.30;98.10;;;;;;5031042;28;20515;-63
2021/12/28 15:14:52;;;;;;;16.42;5.60;;;16.30;98.30;;;;;;5030953;28;20043;-63
2021/12/28 15:17:57;;;;;;;15.93;5.22;;;16.20;98.40;;;;;;5030319;28;20052;-62
2021/12/28 15:21:02;;;;;;;12.48;5.90;;;16.20;98.40;;;;;;5030565;28;20040;-62
2021/12/28 15:24:06;;;;;;;9.75;4.50;;;16.10;98.60;;;;;;5030307;28;20064;-63
2021/12/28 15:27:13;;;;;;;12.02;4.43;;;16.10;98.70;;;;;;5030786;28;20044;-63
2021/12/28 15:30:20;;;;;;;10.23;4.00;;;16.00;98.90;;;;;;5030609;28;20507;-63
2021/12/28 15:33:24;;;;;;;12.30;4.88;;;16.00;99.20;;;;;;5030348;28;20118;-64
2021/12/28 15:36:28;;;;;;;8.95;4.43;;;15.90;99.50;;;;;;5018266;28;20056;-64
2021/12/28 15:39:32;;;;;;;12.88;5.00;;;15.90;99.70;;;;;;5030869;28;20045;-62
2021/12/28 15:42:36;;;;;;;15.52;4.95;;;15.90;99.90;;;;;;5030628;28;20401;-64
2021/12/28 15:45:41;;;;;;;24.08;5.43;;;15.80;99.90;;;;;;5030535;28;20052;-61
2021/12/28 15:48:45;;;;;;;15.45;6.55;;;15.70;99.90;;;;;;5030118;28;20064;-62
2021/12/28 15:51:50;;;;;;;16.77;7.32;;;15.70;99.90;;;;;;5017698;28;20504;-61
2021/12/28 15:54:53;;;;;;;16.85;6.75;;;15.60;99.90;;;;;;5029285;28;20052;-64
2021/12/28 15:57:57;;;;;;;30.40;10.15;;;15.60;99.90;;;;;;5029355;28;20052;-65
2021/12/28 16:01:03;;;;;;;30.58;10.80;;;15.50;99.90;;;;;;5029418;28;20048;-64
2021/12/28 16:04:08;;;;;;;23.63;10.50;;;15.50;99.90;;;;;;5029673;28;20060;-65
2021/12/28 16:07:13;;;;;;;22.50;11.95;;;15.40;99.90;;;;;;5029843;28;20052;-62